This is the latest recevied weather packets stored in our database for station/object DL8FX-6. If no packets are shown the sender has not sent any weather packets the latest 10 day(s).
| Time | Temp. | Humidity | Pressure | Rain* | Wind** | Luminosity | Snow |
|---|---|---|---|---|---|---|---|
| 1777904456 | 22.78° C | 46% | 1009.9 hPa | 0 mm | - | - | - |
| 1777903249 | 23.89° C | 44% | 1009.9 hPa | 0 mm | - | - | - |
| 1777900832 | 22.78° C | 50% | 1010.1 hPa | 0 mm | - | - | - |
| 1777900228 | 23.33° C | 51% | 1010.2 hPa | 0 mm | - | - | - |
| 1777899624 | 21.67° C | 59% | 1010.2 hPa | 0 mm | - | - | - |
| 1777898476 | 22.78° C | 52% | 1010.3 hPa | 0 mm | - | - | - |
| 1777895455 | 22.78° C | 51% | 1010.2 hPa | 0 mm | - | - | - |
| 1777884036 | 22.22° C | 56% | 1010.6 hPa | 0 mm | - | - | - |
| 1777881016 | 21.11° C | 60% | 1010.5 hPa | 0 mm | - | - | - |
| 1777878056 | 21.67° C | 56% | 1010 hPa | 0 mm | - | - | - |
| 1777875641 | 21.11° C | 53% | 1010 hPa | 0 mm | - | - | - |
| 1777873829 | 21.11° C | 52% | 1009.7 hPa | 0 mm | - | - | - |
| 1777872621 | 20.56° C | 57% | 1009.7 hPa | 0 mm | - | - | - |
| 1777869661 | 14.44° C | 75% | 1009.3 hPa | 0 mm | - | - | - |
| 1777869058 | 14.44° C | 74% | 1009.1 hPa | 0 mm | - | - | - |
| 1777861870 | 15° C | 66% | 1009.3 hPa | 0 mm | - | - | - |
| 1777861266 | 15° C | 67% | 1009.2 hPa | 0 mm | - | - | - |
| 1777860662 | 15° C | 65% | 1009 hPa | 0 mm | - | - | - |
| 1777860059 | 15.56° C | 64% | 1009 hPa | 0 mm | - | - | - |
| 1777858287 | 15.56° C | 63% | 1008.8 hPa | 0 mm | - | - | - |
| 1777856434 | 15.56° C | 63% | 1008.8 hPa | 0 mm | - | - | - |
| 1777851059 | 17.78° C | 60% | 1009 hPa | 0 mm | - | - | - |
| 1777849851 | 17.22° C | 64% | 1009 hPa | 0 mm | - | - | - |
| 1777845020 | 17.78° C | 66% | 1008.3 hPa | 0 mm | - | - | - |
| 1777840249 | 17.78° C | 63% | 1007.8 hPa | 0 mm | - | - | - |
* Rain latest hour (hover to see other rain measurements)
** Current wind speed in m/s (hover to see current wind gust speed)